Time;durP1;ratioP1;P1;durP2;ratioP2;P2;SDS_P1;SDS_P2;PMS_P1;PMS_P2;Temp;Humidity;BMP_temperature;BMP_pressure;BME280_temperature;BME280_humidity;BME280_pressure;Samples;Min_cycle;Max_cycle;Signal;HPM_P1;HPM_P2
2021/04/17 00:01:39;;;;;;;4.60;2.55;;;;;;;8.77;45.82;100876.13;5109325;22;20113;-87
2021/04/17 00:04:06;;;;;;;4.03;2.50;;;;;;;8.76;46.04;100876.19;5075600;28;20086;-87
2021/04/17 00:06:33;;;;;;;4.75;2.45;;;;;;;8.73;45.90;100879.75;5075705;28;20055;-87
2021/04/17 00:09:02;;;;;;;4.95;2.53;;;;;;;8.71;45.78;100871.09;5093742;28;20400;-87
2021/04/17 00:11:28;;;;;;;4.63;2.72;;;;;;;8.68;46.10;100869.38;5075660;28;20044;-87
2021/04/17 00:13:55;;;;;;;5.80;2.78;;;;;;;8.64;46.18;100870.41;5075248;28;20056;-86
2021/04/17 00:16:21;;;;;;;4.07;2.28;;;;;;;8.60;45.91;100867.00;5093875;28;20047;-86
2021/04/17 00:18:47;;;;;;;5.10;2.55;;;;;;;8.57;46.27;100858.38;5076052;28;20055;-86
2021/04/17 00:21:13;;;;;;;4.07;2.55;;;;;;;8.53;46.24;100862.00;5093563;28;20048;-86
2021/04/17 00:23:40;;;;;;;6.95;3.00;;;;;;;8.50;46.24;100859.44;5075699;28;20048;-86
2021/04/17 00:26:06;;;;;;;6.38;2.70;;;;;;;8.47;46.43;100863.88;5076016;28;20442;-85
2021/04/17 00:28:33;;;;;;;4.40;2.20;;;;;;;8.42;46.56;100859.69;5093590;28;20048;-85
2021/04/17 00:31:00;;;;;;;7.05;2.30;;;;;;;8.40;46.30;100858.84;5076371;28;20470;-85
2021/04/17 00:33:27;;;;;;;3.58;2.42;;;;;;;8.38;46.11;100858.03;5093809;28;20122;-85
2021/04/17 00:35:53;;;;;;;5.88;2.60;;;;;;;8.34;46.29;100859.91;5075564;28;20048;-85
2021/04/17 00:38:19;;;;;;;6.47;2.70;;;;;;;8.30;46.61;100847.78;5093800;28;20125;-86
2021/04/17 00:40:45;;;;;;;4.93;2.50;;;;;;;8.27;46.69;100850.50;5075853;28;20049;-86
2021/04/17 00:43:12;;;;;;;5.15;2.97;;;;;;;8.25;46.94;100855.78;5093707;28;20048;-86
2021/04/17 00:45:38;;;;;;;6.43;2.60;;;;;;;8.23;46.90;100860.22;5075669;28;20048;-86
2021/04/17 00:48:05;;;;;;;6.18;2.53;;;;;;;8.21;46.71;100855.03;5075656;28;20091;-85
2021/04/17 00:50:32;;;;;;;6.88;2.40;;;;;;;8.19;46.88;100845.50;5094017;28;20048;-86
2021/04/17 00:52:58;;;;;;;5.40;2.22;;;;;;;8.16;47.36;100849.06;5093659;28;20097;-86
2021/04/17 00:55:24;;;;;;;3.42;2.58;;;;;;;8.15;47.55;100855.19;5076182;28;20059;-87
2021/04/17 00:57:50;;;;;;;7.07;2.30;;;;;;;8.14;47.27;100849.97;5078964;28;20062;-87
2021/04/17 01:00:17;;;;;;;4.82;2.40;;;;;;;8.13;47.40;100846.53;5079102;28;20093;-87
2021/04/17 01:02:51;;;;;;;4.93;2.78;;;;;;;8.10;47.95;100849.22;5078523;28;20397;-87
2021/04/17 01:05:19;;;;;;;4.68;2.47;;;;;;;8.12;47.62;100846.56;5078854;28;20082;-87
2021/04/17 01:07:50;;;;;;;4.95;2.80;;;;;;;8.10;47.80;100853.63;5078923;28;20048;-87
2021/04/17 01:10:42;;;;;;;4.75;2.28;;;;;;;8.06;48.10;100845.84;5078823;28;20047;-87
2021/04/17 01:13:10;;;;;;;4.72;2.28;;;;;;;8.07;47.12;100842.31;5096686;28;20503;-87
2021/04/17 01:15:38;;;;;;;7.40;2.58;;;;;;;8.05;47.43;100845.88;5096240;28;20558;-87
2021/04/17 01:18:06;;;;;;;4.20;2.50;;;;;;;8.03;47.62;100845.94;5078616;28;20056;-87
2021/04/17 01:20:42;;;;;;;5.53;2.33;;;;;;;7.97;47.80;100842.63;5078735;28;20044;-87
2021/04/17 01:23:39;;;;;;;3.35;2.17;;;;;;;7.92;47.95;100834.88;5078686;28;20450;-87
2021/04/17 01:26:17;;;;;;;3.30;2.00;;;;;;;7.90;48.05;100841.94;5096514;28;20044;-87
2021/04/17 01:28:47;;;;;;;7.28;2.38;;;;;;;7.87;47.70;100848.13;5096727;28;20063;-85
2021/04/17 01:31:16;;;;;;;5.15;2.70;;;;;;;7.84;47.77;100836.88;5096746;28;20525;-85
2021/04/17 01:33:45;;;;;;;5.93;2.22;;;;;;;7.79;47.90;100843.09;5078590;28;20048;-86
2021/04/17 01:36:14;;;;;;;5.00;2.63;;;;;;;7.76;47.50;100839.69;5078804;28;20055;-85
2021/04/17 01:38:45;;;;;;;4.93;2.30;;;;;;;7.69;47.86;100839.00;5078682;28;20051;-85
2021/04/17 01:41:18;;;;;;;4.57;2.30;;;;;;;7.65;47.89;100840.00;5096414;28;20047;-86
2021/04/17 01:43:49;;;;;;;5.43;2.58;;;;;;;7.60;48.57;100842.75;5078246;28;20052;-86
2021/04/17 01:46:19;;;;;;;4.95;2.60;;;;;;;7.57;48.27;100832.34;5078570;28;20055;-86
2021/04/17 01:48:49;;;;;;;8.38;2.58;;;;;;;7.52;48.38;100837.69;5078347;28;20079;-86
2021/04/17 01:51:17;;;;;;;6.20;3.15;;;;;;;7.50;48.31;100831.66;5078230;28;20044;-86
2021/04/17 01:53:45;;;;;;;5.07;2.80;;;;;;;7.47;48.41;100836.13;5078253;28;20051;-86
2021/04/17 01:56:15;;;;;;;9.63;2.65;;;;;;;7.44;48.81;100837.03;5096312;28;20060;-86
2021/04/17 01:58:43;;;;;;;7.47;3.15;;;;;;;7.39;48.49;100831.94;5096276;28;20048;-85
2021/04/17 02:01:09;;;;;;;6.03;2.40;;;;;;;7.38;48.57;100827.59;5078212;28;20097;-85
2021/04/17 02:03:36;;;;;;;5.97;2.60;;;;;;;7.37;48.51;100835.50;5077790;28;20130;-86
2021/04/17 02:06:03;;;;;;;5.97;2.65;;;;;;;7.33;48.79;100832.09;5076145;28;20451;-86
2021/04/17 02:08:32;;;;;;;5.00;2.15;;;;;;;7.32;48.76;100834.75;5094321;28;20051;-87
2021/04/17 02:10:58;;;;;;;5.93;2.72;;;;;;;7.28;48.91;100828.72;5077315;28;20523;-87
2021/04/17 02:13:24;;;;;;;5.88;2.50;;;;;;;7.26;48.45;100828.75;5077661;28;20048;-87
2021/04/17 02:15:51;;;;;;;6.78;2.50;;;;;;;7.24;48.71;100834.94;5077180;28;20492;-87
2021/04/17 02:18:42;;;;;;;12.88;2.65;;;;;;;7.16;49.10;100836.03;5077759;28;20051;-87
2021/04/17 02:21:10;;;;;;;7.30;2.58;;;;;;;7.16;49.05;100830.78;5095286;28;20070;-87
2021/04/17 02:23:37;;;;;;;6.90;2.85;;;;;;;7.14;49.05;100826.47;5077437;28;20052;-86
2021/04/17 02:26:03;;;;;;;5.55;3.10;;;;;;;7.10;49.00;100819.59;5076849;28;20052;-87
2021/04/17 02:28:31;;;;;;;5.93;3.13;;;;;;;7.08;49.29;100821.38;5077587;28;20044;-85
2021/04/17 02:31:02;;;;;;;4.65;2.58;;;;;;;7.04;49.53;100818.00;5095557;28;20090;-85
2021/04/17 02:33:28;;;;;;;6.57;2.88;;;;;;;7.02;49.44;100814.53;5077591;28;20052;-85
2021/04/17 02:35:55;;;;;;;6.35;3.05;;;;;;;6.99;49.33;100819.88;5095324;28;20059;-85
2021/04/17 02:38:21;;;;;;;5.82;2.88;;;;;;;6.97;49.38;100821.66;5077589;28;20056;-85
2021/04/17 02:40:47;;;;;;;11.43;2.50;;;;;;;6.94;49.47;100814.75;5077022;28;20062;-85
2021/04/17 02:43:13;;;;;;;4.35;2.70;;;;;;;6.91;49.24;100820.91;5095523;28;20048;-85
2021/04/17 02:45:39;;;;;;;10.90;3.05;;;;;;;6.88;49.58;100814.91;5095109;28;20048;-85
2021/04/17 02:48:06;;;;;;;3.97;2.10;;;;;;;6.86;49.25;100816.69;5077248;28;20071;-85
2021/04/17 02:50:32;;;;;;;7.88;2.55;;;;;;;6.82;49.54;100815.03;5077202;28;20123;-85
2021/04/17 02:52:58;;;;;;;7.53;2.80;;;;;;;6.77;49.35;100808.16;5076995;28;20484;-87
2021/04/17 02:55:25;;;;;;;6.00;2.78;;;;;;;6.74;49.70;100803.03;5094280;28;20431;-87
2021/04/17 02:57:51;;;;;;;4.72;2.83;;;;;;;6.71;49.58;100807.44;5094487;28;20047;-87
2021/04/17 03:00:21;;;;;;;11.88;3.20;;;;;;;6.66;49.96;100804.94;5094529;28;20485;-87
2021/04/17 03:02:47;;;;;;;5.60;2.67;;;;;;;6.63;49.83;100803.28;5076365;28;20063;-87
2021/04/17 03:05:14;;;;;;;8.00;2.83;;;;;;;6.60;49.86;100798.09;5094205;28;20066;-87
2021/04/17 03:07:40;;;;;;;9.63;2.80;;;;;;;6.58;49.80;100804.28;5094608;28;20056;-87
2021/04/17 03:10:08;;;;;;;7.53;2.90;;;;;;;6.54;50.20;100795.63;5094226;28;20458;-87
2021/04/17 03:12:34;;;;;;;4.13;2.33;;;;;;;6.52;50.10;100797.41;5076446;28;20052;-87
2021/04/17 03:15:02;;;;;;;9.13;2.63;;;;;;;6.51;49.97;100800.94;5076292;28;20055;-87
2021/04/17 03:17:28;;;;;;;7.68;3.00;;;;;;;6.49;50.29;100805.34;5076284;28;20052;-87
2021/04/17 03:19:54;;;;;;;7.72;3.03;;;;;;;6.48;50.57;100809.72;5094119;28;20097;-87
2021/04/17 03:22:21;;;;;;;4.82;2.45;;;;;;;6.48;50.44;100795.78;5075993;28;20047;-87
2021/04/17 03:24:47;;;;;;;4.68;2.35;;;;;;;6.47;50.66;100797.50;5094035;28;20052;-87
2021/04/17 03:27:13;;;;;;;5.45;2.67;;;;;;;6.47;50.92;100791.44;5076332;28;20044;-87
2021/04/17 03:29:39;;;;;;;5.50;2.63;;;;;;;6.46;50.60;100792.31;5094100;28;20135;-87
2021/04/17 03:32:06;;;;;;;4.72;2.47;;;;;;;6.47;50.82;100788.81;5094089;28;20511;-87
2021/04/17 03:34:32;;;;;;;5.70;2.42;;;;;;;6.47;50.97;100794.06;5093761;28;20493;-87
2021/04/17 03:36:58;;;;;;;7.03;2.65;;;;;;;6.47;50.74;100794.06;5076153;28;20048;-87
2021/04/17 03:39:24;;;;;;;9.70;3.33;;;;;;;6.46;50.90;100792.31;5094037;28;20048;-87
2021/04/17 03:41:50;;;;;;;16.98;3.05;;;;;;;6.46;50.88;100801.03;5094256;28;20044;-87
2021/04/17 03:44:16;;;;;;;7.97;2.97;;;;;;;6.45;51.03;100799.31;5075599;28;20048;-87
2021/04/17 03:46:43;;;;;;;6.50;2.20;;;;;;;6.44;50.83;100801.97;5093879;28;20483;-87
2021/04/17 03:49:09;;;;;;;7.63;2.60;;;;;;;6.42;50.86;100790.69;5076023;28;20044;-87
2021/04/17 03:51:35;;;;;;;3.75;2.30;;;;;;;6.39;50.94;100797.69;5093541;28;20048;-87
2021/04/17 03:54:01;;;;;;;6.10;2.47;;;;;;;6.38;51.08;100793.38;5075814;28;20060;-87
2021/04/17 03:56:28;;;;;;;10.10;2.67;;;;;;;6.35;51.03;100796.03;5075922;28;20101;-87
2021/04/17 03:58:54;;;;;;;5.57;2.75;;;;;;;6.32;50.88;100785.66;5075884;28;20074;-87
2021/04/17 04:01:20;;;;;;;7.43;3.05;;;;;;;6.30;50.97;100795.28;5075552;28;20078;-87
2021/04/17 04:03:46;;;;;;;8.95;2.75;;;;;;;6.27;51.13;100795.34;5075675;28;20047;-87
2021/04/17 04:06:12;;;;;;;5.15;2.25;;;;;;;6.22;51.19;100792.00;5093467;28;20419;-87
2021/04/17 04:08:38;;;;;;;6.55;2.63;;;;;;;6.19;50.95;100790.31;5075715;28;20056;-87
2021/04/17 04:11:04;;;;;;;5.28;2.35;;;;;;;6.18;51.26;100798.19;5075357;28;20054;-87
2021/04/17 04:13:30;;;;;;;5.22;2.53;;;;;;;6.13;51.44;100787.81;5075821;28;20512;-85
2021/04/17 04:15:56;;;;;;;6.60;2.78;;;;;;;6.10;51.25;100795.75;5093725;28;20052;-85
2021/04/17 04:18:23;;;;;;;6.10;2.95;;;;;;;6.08;51.66;100787.94;5075999;28;20474;-85
2021/04/17 04:20:49;;;;;;;5.78;2.53;;;;;;;6.05;51.74;100789.75;5075651;28;20062;-85
2021/04/17 04:23:15;;;;;;;4.30;2.88;;;;;;;6.05;51.66;100794.97;5076266;28;20085;-85
2021/04/17 04:25:41;;;;;;;7.10;2.67;;;;;;;6.03;51.66;100797.63;5076013;28;20048;-85
2021/04/17 04:28:07;;;;;;;7.45;2.58;;;;;;;6.01;51.55;100796.75;5075983;28;20135;-85
2021/04/17 04:30:33;;;;;;;4.72;2.50;;;;;;;5.99;51.76;100794.16;5095520;28;20408;-86
2021/04/17 04:32:59;;;;;;;7.20;2.83;;;;;;;5.97;51.69;100793.34;5098358;28;20438;-85
2021/04/17 04:35:26;;;;;;;6.20;3.17;;;;;;;5.96;51.97;100799.47;5097774;28;20132;-85
2021/04/17 04:37:52;;;;;;;7.55;2.95;;;;;;;5.94;52.00;100788.19;5080089;28;20055;-85
2021/04/17 04:40:18;;;;;;;7.45;2.70;;;;;;;5.93;52.06;100793.44;5080214;28;20411;-85
2021/04/17 04:42:44;;;;;;;6.70;2.78;;;;;;;5.90;52.04;100785.69;5097869;28;20127;-85
2021/04/17 04:45:11;;;;;;;4.50;2.40;;;;;;;5.89;51.83;100791.78;5097851;28;20063;-85
2021/04/17 04:47:37;;;;;;;4.43;2.58;;;;;;;5.86;51.87;100793.56;5097675;28;20055;-85
2021/04/17 04:50:06;;;;;;;6.30;2.63;;;;;;;5.84;52.18;100792.72;5080032;28;20140;-85
2021/04/17 04:52:32;;;;;;;6.18;2.72;;;;;;;5.83;52.32;100806.69;5097502;28;20044;-85
2021/04/17 04:54:59;;;;;;;6.93;2.70;;;;;;;5.82;52.29;100793.66;5079767;28;20059;-85
2021/04/17 04:57:25;;;;;;;9.48;3.20;;;;;;;5.82;52.45;100799.75;5097561;28;20059;-86
2021/04/17 04:59:51;;;;;;;7.75;2.80;;;;;;;5.81;52.35;100787.59;5079744;28;20051;-85
2021/04/17 05:02:17;;;;;;;6.78;2.72;;;;;;;5.81;52.41;100792.81;5079540;28;20040;-85
2021/04/17 05:04:44;;;;;;;5.32;2.60;;;;;;;5.82;52.72;100791.91;5079478;28;20048;-85
2021/04/17 05:07:10;;;;;;;7.85;2.97;;;;;;;5.83;52.58;100790.16;5079141;28;20056;-85
2021/04/17 05:09:36;;;;;;;9.40;3.28;;;;;;;5.84;52.80;100799.72;5097336;28;20048;-85
2021/04/17 05:12:02;;;;;;;3.90;2.63;;;;;;;5.84;52.91;100789.28;5078847;28;20048;-85
2021/04/17 05:14:28;;;;;;;8.05;2.95;;;;;;;5.87;52.92;100795.28;5079094;28;20048;-85
2021/04/17 05:16:54;;;;;;;11.82;3.22;;;;;;;5.86;53.16;100790.97;5096727;28;20202;-87
2021/04/17 05:19:21;;;;;;;9.45;3.00;;;;;;;5.89;52.71;100791.78;5096432;28;20048;-87
2021/04/17 05:21:47;;;;;;;7.95;3.10;;;;;;;5.90;53.27;100790.91;5078275;28;20496;-87
2021/04/17 05:24:13;;;;;;;6.95;2.92;;;;;;;5.91;52.90;100790.00;5078211;28;20052;-87
2021/04/17 05:26:39;;;;;;;5.22;3.10;;;;;;;5.93;53.23;100796.03;5078505;28;20097;-87
2021/04/17 05:29:06;;;;;;;5.95;3.03;;;;;;;5.93;53.30;100801.28;5096855;28;20180;-87
2021/04/17 05:31:32;;;;;;;5.93;3.05;;;;;;;5.95;53.30;100804.72;5096220;28;20043;-87
2021/04/17 05:33:58;;;;;;;9.88;3.75;;;;;;;5.97;53.59;100792.47;5078292;28;20105;-87
2021/04/17 05:36:24;;;;;;;10.50;3.05;;;;;;;5.99;53.64;100795.94;5078678;28;20052;-87
2021/04/17 05:38:52;;;;;;;9.27;3.97;;;;;;;6.03;53.84;100800.25;5096335;28;20056;-87
2021/04/17 05:41:24;;;;;;;8.38;3.55;;;;;;;6.05;54.03;100798.44;5096092;28;20052;-85
2021/04/17 05:43:51;;;;;;;8.35;3.85;;;;;;;6.09;53.80;100792.25;5078787;28;20450;-85
2021/04/17 05:46:17;;;;;;;9.23;3.72;;;;;;;6.11;53.67;100792.22;5078943;28;20048;-86
2021/04/17 05:48:43;;;;;;;5.55;3.38;;;;;;;6.14;53.95;100794.78;5078236;28;20134;-85
2021/04/17 05:51:09;;;;;;;9.13;3.75;;;;;;;6.18;53.97;100790.34;5078314;28;20400;-86
2021/04/17 05:53:35;;;;;;;8.30;3.45;;;;;;;6.20;54.21;100792.03;5096350;28;20058;-85
2021/04/17 05:56:02;;;;;;;8.40;3.80;;;;;;;6.24;54.31;100790.19;5078023;28;20052;-86
2021/04/17 05:58:28;;;;;;;10.48;3.58;;;;;;;6.27;54.44;100790.13;5078435;28;20048;-86
2021/04/17 06:03:22;;;;;;;13.10;4.70;;;;;;;6.37;54.68;100793.41;5034598;28;20049;-85
2021/04/17 06:05:48;;;;;;;8.23;3.83;;;;;;;6.42;54.81;100781.06;5035376;28;20103;-85
2021/04/17 06:08:14;;;;;;;11.82;4.72;;;;;;;6.47;54.54;100783.59;5035718;28;20053;-85
2021/04/17 06:10:40;;;;;;;11.75;4.07;;;;;;;6.52;54.80;100776.50;5035487;28;20049;-85
2021/04/17 06:13:06;;;;;;;12.32;4.30;;;;;;;6.57;55.08;100785.09;5035525;28;20057;-85
2021/04/17 06:15:33;;;;;;;10.82;4.30;;;;;;;6.63;54.92;100786.69;5034154;28;20053;-85
2021/04/17 06:17:59;;;;;;;12.52;4.43;;;;;;;6.67;55.05;100775.28;5035691;28;20049;-85
2021/04/17 06:20:25;;;;;;;12.25;4.53;;;;;;;6.73;55.03;100784.72;5034270;28;20060;-86
2021/04/17 06:22:55;;;;;;;10.70;4.28;;;;;;;6.79;55.55;100784.56;5035341;28;20045;-86
2021/04/17 06:25:21;;;;;;;13.02;5.00;;;;;;;6.85;55.56;100789.66;5034923;28;20557;-86
2021/04/17 06:27:47;;;;;;;12.88;4.10;;;;;;;6.92;55.68;100790.38;5035215;28;20076;-85
2021/04/17 06:30:14;;;;;;;11.43;4.47;;;;;;;6.99;55.59;100788.47;5035383;28;20103;-85
2021/04/17 06:32:40;;;;;;;9.65;4.10;;;;;;;7.05;55.71;100780.44;5033793;28;20053;-85
2021/04/17 06:35:07;;;;;;;10.50;4.65;;;;;;;7.13;55.81;100785.47;5033783;28;20453;-85
2021/04/17 06:37:33;;;;;;;14.27;4.95;;;;;;;7.21;56.18;100780.06;5034141;28;20056;-85
2021/04/17 06:39:59;;;;;;;10.07;4.25;;;;;;;7.29;56.19;100780.72;5035180;28;20122;-86
2021/04/17 06:42:27;;;;;;;11.63;4.63;;;;;;;7.38;56.39;100779.59;5034968;28;20051;-86
2021/04/17 06:44:55;;;;;;;10.55;4.80;;;;;;;7.48;56.32;100777.56;5035232;28;20052;-86
2021/04/17 06:47:21;;;;;;;10.68;4.30;;;;;;;7.60;56.22;100784.22;5035223;28;20053;-86
2021/04/17 06:49:48;;;;;;;13.07;4.80;;;;;;;7.69;56.23;100786.59;5033936;28;20053;-86
2021/04/17 06:52:15;;;;;;;12.63;4.53;;;;;;;7.78;55.93;100788.94;5034488;28;20464;-86
2021/04/17 06:54:44;;;;;;;7.55;4.13;;;;;;;7.85;55.84;100788.78;5034001;28;20100;-86
2021/04/17 06:57:13;;;;;;;9.23;4.35;;;;;;;7.92;56.40;100787.69;5033368;28;20049;-86
2021/04/17 06:59:40;;;;;;;8.20;3.90;;;;;;;8.00;56.12;100782.22;5033815;28;20050;-86
2021/04/17 07:02:14;;;;;;;14.77;4.10;;;;;;;8.05;56.28;100785.56;5044181;28;20040;-86
2021/04/17 07:04:41;;;;;;;12.73;4.32;;;;;;;8.13;56.17;100786.19;5054339;28;20484;-86
2021/04/17 07:07:07;;;;;;;10.40;4.65;;;;;;;8.21;55.63;100785.97;5054319;28;20053;-86
2021/04/17 07:09:33;;;;;;;16.80;5.30;;;;;;;8.28;56.04;100789.25;5036972;28;20053;-86
2021/04/17 07:11:59;;;;;;;9.63;4.20;;;;;;;8.32;55.49;100794.38;5053991;28;20091;-85
2021/04/17 07:14:26;;;;;;;14.75;4.53;;;;;;;8.41;56.00;100795.00;5054160;28;20494;-86
2021/04/17 07:17:07;;;;;;;15.65;5.38;;;;;;;8.45;56.47;100791.38;5036453;28;20103;-86
2021/04/17 07:19:47;;;;;;;15.70;5.78;;;;;;;8.52;56.83;100785.00;5054011;28;20049;-86
2021/04/17 07:22:36;;;;;;;15.07;5.93;;;;;;;8.62;56.58;100792.59;5036200;28;20048;-86
2021/04/17 07:25:05;;;;;;;15.35;5.85;;;;;;;8.71;56.39;100787.09;5036165;28;20460;-86
2021/04/17 07:27:35;;;;;;;16.98;6.60;;;;;;;8.81;56.53;100793.75;5054002;28;20052;-86
2021/04/17 07:30:17;;;;;;;16.38;6.38;;;;;;;8.90;57.36;100789.94;5036341;28;20075;-86
2021/04/17 07:33:05;;;;;;;16.17;5.90;;;;;;;9.04;57.13;100789.47;5053735;28;20048;-86
2021/04/17 07:35:35;;;;;;;19.05;5.60;;;;;;;9.20;56.57;100787.19;5053468;28;20085;-86
2021/04/17 07:38:21;;;;;;;12.68;5.65;;;;;;;9.31;56.70;100783.34;5036203;28;20053;-85
2021/04/17 07:41:07;;;;;;;12.88;4.82;;;;;;;9.41;56.34;100773.38;5035964;28;20052;-85
2021/04/17 07:43:52;;;;;;;12.45;4.70;;;;;;;9.48;55.91;100778.34;5053840;28;20052;-85
2021/04/17 07:46:30;;;;;;;11.00;4.65;;;;;;;9.52;55.59;100776.44;5053736;28;20064;-85
2021/04/17 07:49:21;;;;;;;16.00;5.28;;;;;;;9.48;55.21;100772.22;5035896;28;20056;-85
2021/04/17 07:52:09;;;;;;;10.10;4.63;;;;;;;9.49;55.80;100771.28;5053504;28;20059;-86
2021/04/17 07:54:57;;;;;;;13.55;4.80;;;;;;;9.53;55.61;100767.63;5053178;28;20045;-86
2021/04/17 07:57:36;;;;;;;10.02;4.28;;;;;;;9.53;55.56;100775.53;5035027;28;20048;-85
2021/04/17 08:00:06;;;;;;;18.02;4.85;;;;;;;9.57;55.66;100761.34;5035947;28;20064;-85
2021/04/17 08:02:33;;;;;;;13.45;5.00;;;;;;;9.59;55.58;100774.44;5052979;28;20056;-85
2021/04/17 08:05:01;;;;;;;13.55;4.93;;;;;;;9.62;55.79;100769.97;5052939;28;20071;-85
2021/04/17 08:07:28;;;;;;;13.68;4.45;;;;;;;9.68;55.84;100762.75;5053473;28;20049;-85
2021/04/17 08:09:57;;;;;;;12.45;4.75;;;;;;;9.76;55.96;100771.22;5053196;28;20451;-85
2021/04/17 08:12:24;;;;;;;9.48;4.28;;;;;;;9.85;55.89;100775.25;5036435;28;20055;-85
2021/04/17 08:14:51;;;;;;;9.65;4.25;;;;;;;9.95;55.73;100781.91;5035273;28;20106;-85
2021/04/17 08:17:19;;;;;;;14.70;4.50;;;;;;;10.04;55.66;100773.66;5035519;28;20064;-85
2021/04/17 08:19:46;;;;;;;15.13;4.53;;;;;;;10.12;55.21;100767.22;5035682;28;20136;-85
2021/04/17 08:22:12;;;;;;;12.23;4.38;;;;;;;10.21;55.25;100766.03;5053439;28;20095;-86
2021/04/17 08:24:39;;;;;;;10.68;3.97;;;;;;;10.28;55.14;100759.63;5052918;28;20094;-86
2021/04/17 08:27:06;;;;;;;7.82;3.75;;;;;;;10.36;54.88;100760.13;5035382;28;20106;-85
2021/04/17 08:29:52;;;;;;;10.52;3.88;;;;;;;10.39;54.76;100761.81;5035553;28;20053;-85
2021/04/17 08:32:24;;;;;;;11.68;4.10;;;;;;;10.49;54.15;100755.28;5035459;28;20045;-85
2021/04/17 08:35:36;;;;;;;15.45;4.13;;;;;;;10.53;54.14;100758.63;5035103;28;20049;-85
2021/04/17 08:38:07;;;;;;;7.28;3.63;;;;;;;10.62;54.02;100762.69;5053205;28;20132;-85
2021/04/17 08:40:36;;;;;;;12.75;3.70;;;;;;;10.66;53.88;100759.00;5035294;28;20056;-85
2021/04/17 08:43:17;;;;;;;7.97;3.55;;;;;;;10.71;53.42;100767.56;5035412;28;20056;-85
2021/04/17 08:46:07;;;;;;;8.07;3.28;;;;;;;10.79;53.31;100767.25;5052816;28;20045;-86
2021/04/17 08:48:50;;;;;;;8.18;2.78;;;;;;;10.88;53.01;100763.38;5053385;28;20099;-86
2021/04/17 08:51:30;;;;;;;7.35;3.28;;;;;;;10.95;52.80;100756.91;5053092;28;20445;-85
2021/04/17 08:54:14;;;;;;;7.88;3.17;;;;;;;11.02;53.20;100760.13;5052690;28;20559;-85
2021/04/17 08:56:50;;;;;;;9.15;3.47;;;;;;;11.14;53.51;100758.78;5035545;28;20075;-85
2021/04/17 08:59:31;;;;;;;13.48;3.53;;;;;;;11.24;53.17;100756.56;5053082;28;20490;-85
2021/04/17 09:02:05;;;;;;;10.95;3.60;;;;;;;11.37;53.41;100760.41;5034927;28;20049;-85
2021/04/17 09:04:35;;;;;;;10.55;3.45;;;;;;;11.50;53.11;100752.78;5052494;28;20057;-86
2021/04/17 09:07:15;;;;;;;20.00;3.92;;;;;;;11.57;52.84;100748.97;5035381;28;20127;-85
2021/04/17 09:09:41;;;;;;;12.95;3.55;;;;;;;11.73;52.95;100748.25;5052932;28;20072;-85
2021/04/17 09:12:10;;;;;;;11.23;3.70;;;;;;;11.84;52.61;100753.91;5052551;28;20049;-85
2021/04/17 09:14:36;;;;;;;7.55;2.92;;;;;;;11.95;52.52;100756.03;5052755;28;20103;-86
2021/04/17 09:17:27;;;;;;;6.95;2.67;;;;;;;12.03;50.57;100758.31;5037174;28;20412;-85
2021/04/17 09:19:54;;;;;;;6.40;2.63;;;;;;;12.15;50.82;100756.06;5038427;28;20053;-85
2021/04/17 09:24:52;;;;;;;5.07;2.13;;;;;;;12.30;50.16;100754.47;5056221;28;20048;-85
2021/04/17 09:27:28;;;;;;;9.73;2.50;;;;;;;12.33;48.16;100752.53;5056104;28;20087;-85
2021/04/17 09:30:02;;;;;;;6.68;2.00;;;;;;;12.43;48.78;100744.16;5038503;28;20052;-86
2021/04/17 09:32:33;;;;;;;5.97;2.30;;;;;;;12.54;48.37;100749.78;5055951;28;20045;-86
2021/04/17 09:35:10;;;;;;;7.93;2.10;;;;;;;12.65;48.99;100749.25;5038320;28;20555;-86
2021/04/17 09:37:36;;;;;;;4.75;2.13;;;;;;;12.75;48.66;100749.66;5056456;28;20057;-85
2021/04/17 09:40:05;;;;;;;4.05;1.85;;;;;;;12.83;47.49;100744.84;5038242;28;20080;-85
2021/04/17 09:42:34;;;;;;;4.85;2.03;;;;;;;12.89;46.91;100738.34;5038871;28;20049;-85
2021/04/17 09:45:00;;;;;;;5.90;1.90;;;;;;;12.95;46.76;100737.19;5055570;28;20049;-85
2021/04/17 09:47:26;;;;;;;5.35;1.75;;;;;;;12.98;45.93;100739.69;5055963;28;20053;-85
2021/04/17 09:49:54;;;;;;;3.90;1.83;;;;;;;12.99;45.71;100736.09;5055816;28;20110;-85
2021/04/17 09:52:24;;;;;;;6.13;2.67;;;;;;;13.01;44.64;100728.97;5038082;28;20079;-86
2021/04/17 09:55:01;;;;;;;4.03;2.00;;;;;;;13.00;43.64;100724.59;5038884;28;20095;-86
2021/04/17 09:57:29;;;;;;;5.82;2.50;;;;;;;13.04;45.17;100715.56;5055645;28;20060;-85
2021/04/17 09:59:56;;;;;;;4.78;1.95;;;;;;;13.07;45.01;100720.72;5055645;28;20049;-85
2021/04/17 10:02:24;;;;;;;6.00;2.55;;;;;;;13.07;44.59;100711.91;5055249;28;20053;-85
2021/04/17 10:04:58;;;;;;;4.72;1.90;;;;;;;13.06;43.24;100723.44;5038369;28;20081;-85
2021/04/17 10:07:25;;;;;;;6.15;2.03;;;;;;;13.04;44.43;100710.28;5037657;28;20045;-86
2021/04/17 10:10:03;;;;;;;3.55;2.00;;;;;;;12.99;43.11;100714.97;5055313;28;20497;-86
2021/04/17 10:12:29;;;;;;;5.35;1.90;;;;;;;12.96;43.99;100708.06;5037945;28;20049;-85
2021/04/17 10:15:19;;;;;;;4.30;1.73;;;;;;;12.84;42.98;100708.69;5054918;28;20059;-85
2021/04/17 10:17:48;;;;;;;9.95;2.13;;;;;;;12.82;43.35;100711.41;5055256;28;20084;-86
2021/04/17 10:20:14;;;;;;;3.28;1.38;;;;;;;12.72;43.38;100712.81;5037704;28;20079;-85
2021/04/17 10:22:49;;;;;;;3.47;1.85;;;;;;;12.61;42.66;100714.22;5055243;28;20051;-86
2021/04/17 10:25:43;;;;;;;4.32;1.85;;;;;;;12.52;42.32;100709.38;5037189;28;20052;-86
2021/04/17 10:28:24;;;;;;;4.03;1.80;;;;;;;12.48;42.34;100707.81;5054125;28;20409;-85
2021/04/17 10:30:56;;;;;;;5.95;1.70;;;;;;;12.40;42.85;100704.72;5055037;28;20061;-86
2021/04/17 10:33:28;;;;;;;6.83;2.40;;;;;;;12.33;42.83;100705.00;5055170;28;20049;-86
2021/04/17 10:35:56;;;;;;;9.43;2.40;;;;;;;12.26;43.51;100695.66;5055289;28;20091;-86
2021/04/17 10:38:25;;;;;;;4.28;1.83;;;;;;;12.21;43.39;100700.31;5055172;28;20460;-86
2021/04/17 10:40:51;;;;;;;5.95;1.80;;;;;;;12.19;43.62;100696.91;5054733;28;20114;-86
2021/04/17 10:43:19;;;;;;;6.60;2.08;;;;;;;12.17;43.92;100694.34;5054701;28;20052;-86
2021/04/17 10:45:46;;;;;;;5.25;1.83;;;;;;;12.20;43.95;100690.69;5037258;28;20053;-86
2021/04/17 10:48:15;;;;;;;3.50;1.73;;;;;;;12.23;44.19;100687.91;5036932;28;20056;-86
2021/04/17 10:51:05;;;;;;;7.78;2.40;;;;;;;12.26;43.60;100682.47;5054855;28;20124;-86
2021/04/17 10:53:33;;;;;;;7.25;2.08;;;;;;;12.38;44.47;100684.50;5054759;28;20053;-86
2021/04/17 10:56:09;;;;;;;4.60;2.00;;;;;;;12.51;44.40;100681.25;5054328;28;20055;-86
2021/04/17 10:58:36;;;;;;;5.07;1.90;;;;;;;12.69;44.89;100682.13;5054234;28;20495;-86
2021/04/17 11:01:09;;;;;;;6.40;2.03;;;;;;;12.88;44.21;100679.38;5036518;28;20049;-86
2021/04/17 11:03:51;;;;;;;4.85;2.00;;;;;;;13.06;44.18;100666.16;5036666;28;20052;-86
2021/04/17 11:06:20;;;;;;;4.63;2.35;;;;;;;13.27;44.72;100663.28;5036800;28;20060;-85
2021/04/17 11:08:47;;;;;;;8.60;2.50;;;;;;;13.45;44.48;100663.22;5036856;28;20052;-85
2021/04/17 11:11:21;;;;;;;6.00;2.08;;;;;;;13.58;43.25;100661.66;5036255;28;20053;-86
2021/04/17 11:13:56;;;;;;;5.15;1.92;;;;;;;13.73;43.33;100656.44;5053992;28;20049;-86
2021/04/17 11:16:47;;;;;;;5.28;2.20;;;;;;;13.85;42.29;100653.09;5054288;28;20049;-85
2021/04/17 11:19:27;;;;;;;4.65;2.10;;;;;;;14.00;42.26;100653.16;5054027;28;20080;-85
2021/04/17 11:22:19;;;;;;;3.47;1.90;;;;;;;14.07;42.13;100651.88;5053932;28;20052;-85
2021/04/17 11:25:04;;;;;;;3.90;2.05;;;;;;;14.15;42.14;100644.34;5053951;28;20079;-85
2021/04/17 11:27:32;;;;;;;3.75;2.20;;;;;;;14.26;42.72;100640.22;5036477;28;20048;-86
2021/04/17 11:29:58;;;;;;;5.22;2.35;;;;;;;14.34;43.14;100635.31;5036409;28;20493;-86
2021/04/17 11:32:27;;;;;;;4.78;2.03;;;;;;;14.46;43.43;100629.31;5053740;28;20049;-85
2021/04/17 11:34:54;;;;;;;6.55;2.15;;;;;;;14.68;44.23;100630.66;5053769;28;20064;-86
2021/04/17 11:37:21;;;;;;;6.70;2.30;;;;;;;15.01;44.26;100626.09;5053803;28;20056;-86
2021/04/17 11:39:48;;;;;;;5.32;2.05;;;;;;;15.38;43.48;100628.22;5053656;28;20061;-86
2021/04/17 11:42:17;;;;;;;4.45;2.13;;;;;;;15.73;42.70;100622.47;5053528;28;20060;-86
2021/04/17 11:44:44;;;;;;;7.13;2.35;;;;;;;15.99;41.91;100621.72;5035720;28;20048;-86
2021/04/17 11:47:10;;;;;;;4.60;1.98;;;;;;;16.22;42.23;100617.53;5035842;28;20055;-85